| time (UTC) | temp F | wind direction | speed MPH | gust MPH | rain 1hr in | rain 24hr in | rain mn in | humidity % | barometer mb |
| 20260510222516 | 43 | 0.0 | 3.0 | 0.00 | 0.00 | 0.00 | 76 | 1016.2 | |
| 20260510221518 | 43 | 0.0 | 0.0 | 0.00 | 0.00 | 0.00 | 75 | 1016.2 | |
| 20260510220516 | 43 | 0.0 | 2.0 | 0.00 | 0.00 | 0.00 | 74 | 1016.2 | |
| 20260510215516 | 43 | 158 | 1.0 | 3.0 | 0.00 | 0.00 | 0.00 | 74 | 1016.2 |
| 20260510214516 | 44 | 0.0 | 2.0 | 0.00 | 0.00 | 0.00 | 74 | 1016.5 | |
| 20260510213516 | 44 | 135 | 1.0 | 2.0 | 0.00 | 0.00 | 0.00 | 73 | 1016.5 |
| 20260510212516 | 44 | 0.0 | 2.0 | 0.00 | 0.00 | 0.00 | 73 | 1016.6 | |
| 20260510211518 | 44 | 0.0 | 1.0 | 0.00 | 0.00 | 0.00 | 72 | 1016.7 | |
| 20260510210536 | 45 | 0.0 | 2.0 | 0.00 | 0.00 | 0.00 | 71 | 1016.6 | |
| 20260510205516 | 45 | 0.0 | 2.0 | 0.00 | 0.00 | 0.00 | 70 | 1016.7 | |
| 20260510204516 | 46 | 0.0 | 1.0 | 0.00 | 0.00 | 0.00 | 68 | 1016.7 | |
| 20260510203517 | 46 | 0.0 | 1.0 | 0.00 | 0.00 | 0.00 | 67 | 1016.7 | |
| 20260510202516 | 47 | 0.0 | 1.0 | 0.00 | 0.00 | 0.00 | 66 | 1016.8 | |
| 20260510201517 | 47 | 0.0 | 0.0 | 0.00 | 0.00 | 0.00 | 65 | 1016.9 | |
| 20260510200516 | 47 | 0.0 | 1.0 | 0.00 | 0.00 | 0.00 | 64 | 1017.0 | |
| 20260510195516 | 48 | 0.0 | 1.0 | 0.00 | 0.00 | 0.00 | 64 | 1016.9 | |
| 20260510194516 | 48 | 0.0 | 1.0 | 0.00 | 0.00 | 0.00 | 63 | 1016.9 | |
| 20260510193517 | 49 | 68 | 1.0 | 2.0 | 0.00 | 0.00 | 0.00 | 62 | 1017.1 |
| 20260510192516 | 49 | 68 | 2.0 | 4.0 | 0.00 | 0.00 | 0.00 | 61 | 1017.1 |
| 20260510191516 | 49 | 68 | 2.0 | 5.0 | 0.00 | 0.00 | 0.00 | 61 | 1017.1 |
| 20260510190516 | 50 | 68 | 3.0 | 8.0 | 0.00 | 0.00 | 0.00 | 62 | 1017.2 |
| 20260510185537 | 50 | 45 | 3.0 | 5.0 | 0.00 | 0.00 | 0.00 | 63 | 1017.3 |
| 20260510184516 | 50 | 45 | 3.0 | 6.0 | 0.00 | 0.00 | 0.00 | 60 | 1017.3 |
| 20260510183517 | 51 | 45 | 4.0 | 10.0 | 0.00 | 0.00 | 0.00 | 59 | 1017.4 |
| 20260510182515 | 52 | 45 | 3.0 | 8.0 | 0.00 | 0.00 | 0.00 | 60 | 1017.4 |
| 20260510181517 | 52 | 68 | 3.0 | 9.0 | 0.00 | 0.00 | 0.00 | 59 | 1017.5 |
| 20260510180519 | 52 | 68 | 3.0 | 8.0 | 0.00 | 0.00 | 0.00 | 58 | 1017.6 |
| 20260510175516 | 52 | 45 | 4.0 | 9.0 | 0.00 | 0.00 | 0.00 | 57 | 1017.6 |
| 20260510174516 | 53 | 45 | 5.0 | 9.0 | 0.00 | 0.00 | 0.00 | 55 | 1017.6 |
| 20260510173535 | 53 | 68 | 2.0 | 6.0 | 0.00 | 0.00 | 0.00 | 55 | 1017.5 |
| 20260510172515 | 53 | 45 | 6.0 | 12.0 | 0.00 | 0.00 | 0.00 | 55 | 1017.6 |
| 20260510171515 | 53 | 68 | 2.0 | 8.0 | 0.00 | 0.00 | 0.00 | 56 | 1017.7 |
| 20260510170516 | 54 | 45 | 5.0 | 11.0 | 0.00 | 0.00 | 0.00 | 53 | 1017.9 |
| 20260510165515 | 54 | 45 | 4.0 | 12.0 | 0.00 | 0.00 | 0.00 | 55 | 1017.9 |
| 20260510164516 | 54 | 45 | 4.0 | 10.0 | 0.00 | 0.00 | 0.00 | 55 | 1018.2 |
| 20260510163536 | 54 | 45 | 4.0 | 12.0 | 0.00 | 0.00 | 0.00 | 53 | 1018.3 |
| 20260510162535 | 54 | 45 | 6.0 | 11.0 | 0.00 | 0.00 | 0.00 | 53 | 1018.4 |
| 20260510161515 | 55 | 45 | 6.0 | 14.0 | 0.00 | 0.00 | 0.00 | 53 | 1018.4 |
| 20260510160515 | 55 | 45 | 10.0 | 15.0 | 0.00 | 0.00 | 0.00 | 52 | 1018.6 |
| 20260510155515 | 55 | 68 | 6.0 | 13.0 | 0.00 | 0.00 | 0.00 | 51 | 1018.8 |
| 20260510154515 | 55 | 45 | 6.0 | 15.0 | 0.00 | 0.00 | 0.00 | 55 | 1018.8 |
| 20260510153515 | 55 | 45 | 8.0 | 14.0 | 0.00 | 0.00 | 0.00 | 53 | 1018.8 |
| 20260510152515 | 55 | 45 | 7.0 | 13.0 | 0.00 | 0.00 | 0.00 | 54 | 1018.9 |
| 20260510151515 | 55 | 45 | 7.0 | 17.0 | 0.00 | 0.00 | 0.00 | 54 | 1019.2 |
| 20260510150515 | 55 | 45 | 6.0 | 10.0 | 0.00 | 0.00 | 0.00 | 55 | 1019.3 |
| 20260510145515 | 55 | 45 | 9.0 | 16.0 | 0.00 | 0.00 | 0.00 | 54 | 1019.3 |
| 20260510144517 | 56 | 45 | 6.0 | 13.0 | 0.00 | 0.00 | 0.00 | 55 | 1019.5 |
| 20260510143517 | 55 | 45 | 7.0 | 14.0 | 0.00 | 0.00 | 0.00 | 56 | 1019.5 |
| 20260510142517 | 56 | 45 | 6.0 | 12.0 | 0.00 | 0.00 | 0.00 | 55 | 1019.6 |
| 20260510141537 | 56 | 45 | 8.0 | 13.0 | 0.00 | 0.00 | 0.00 | 55 | 1019.7 |
| 20260510140517 | 56 | 45 | 8.0 | 14.0 | 0.00 | 0.00 | 0.00 | 54 | 1019.7 |
| 20260510135517 | 56 | 68 | 5.0 | 15.0 | 0.00 | 0.00 | 0.00 | 53 | 1019.8 |
| 20260510134517 | 55 | 45 | 8.0 | 15.0 | 0.00 | 0.00 | 0.00 | 53 | 1019.9 |
| 20260510133517 | 56 | 45 | 5.0 | 11.0 | 0.00 | 0.00 | 0.00 | 56 | 1019.9 |
| 20260510132537 | 56 | 45 | 8.0 | 16.0 | 0.00 | 0.00 | 0.00 | 55 | 1020.0 |
| 20260510131517 | 55 | 68 | 5.0 | 12.0 | 0.00 | 0.00 | 0.00 | 57 | 1020.0 |
| 20260510130517 | 55 | 45 | 11.0 | 18.0 | 0.00 | 0.00 | 0.00 | 58 | 1020.2 |
| 20260510125517 | 55 | 45 | 4.0 | 10.0 | 0.00 | 0.00 | 0.00 | 56 | 1020.2 |
| 20260510124517 | 55 | 45 | 8.0 | 14.0 | 0.00 | 0.00 | 0.00 | 59 | 1020.3 |
| 20260510123517 | 56 | 45 | 7.0 | 13.0 | 0.00 | 0.00 | 0.00 | 58 | 1020.3 |
| 20260510122517 | 56 | 45 | 7.0 | 15.0 | 0.00 | 0.00 | 0.00 | 58 | 1020.5 |
| 20260510121517 | 56 | 68 | 5.0 | 13.0 | 0.00 | 0.00 | 0.00 | 57 | 1020.6 |
| 20260510120537 | 56 | 68 | 5.0 | 14.0 | 0.00 | 0.00 | 0.00 | 58 | 1020.7 |
| 20260510115517 | 55 | 45 | 6.0 | 16.0 | 0.00 | 0.00 | 0.00 | 58 | 1020.9 |
| 20260510114517 | 55 | 45 | 7.0 | 15.0 | 0.00 | 0.00 | 0.00 | 59 | 1020.9 |
| 20260510113537 | 53 | 45 | 7.0 | 13.0 | 0.00 | 0.00 | 0.00 | 63 | 1021.0 |
| 20260510112517 | 54 | 45 | 6.0 | 14.0 | 0.00 | 0.00 | 0.00 | 61 | 1021.2 |
| 20260510111517 | 53 | 45 | 7.0 | 13.0 | 0.00 | 0.00 | 0.00 | 63 | 1021.3 |
| 20260510110517 | 54 | 45 | 6.0 | 13.0 | 0.00 | 0.00 | 0.00 | 62 | 1021.4 |
| 20260510105517 | 54 | 45 | 6.0 | 16.0 | 0.00 | 0.00 | 0.00 | 62 | 1021.5 |
| 20260510104517 | 53 | 45 | 7.0 | 17.0 | 0.00 | 0.00 | 0.00 | 64 | 1021.5 |
| 20260510103516 | 54 | 45 | 7.0 | 14.0 | 0.00 | 0.00 | 0.00 | 66 | 1021.5 |
| 20260510102538 | 52 | 45 | 6.0 | 14.0 | 0.00 | 0.00 | 0.00 | 68 | 1021.5 |
| 20260510101537 | 51 | 45 | 10.0 | 17.0 | 0.00 | 0.00 | 0.00 | 69 | 1021.6 |
| 20260510100517 | 51 | 45 | 6.0 | 13.0 | 0.00 | 0.00 | 0.00 | 71 | 1021.8 |
| 20260510095538 | 50 | 45 | 8.0 | 13.0 | 0.00 | 0.00 | 0.00 | 73 | 1021.7 |
| 20260510094517 | 50 | 45 | 8.0 | 16.0 | 0.00 | 0.00 | 0.00 | 74 | 1021.9 |
| 20260510093518 | 49 | 45 | 7.0 | 12.0 | 0.00 | 0.00 | 0.00 | 75 | 1021.9 |
| 20260510092516 | 49 | 45 | 5.0 | 10.0 | 0.00 | 0.00 | 0.00 | 77 | 1022.0 |
| 20260510091518 | 49 | 45 | 6.0 | 14.0 | 0.00 | 0.00 | 0.00 | 77 | 1022.1 |
| 20260510090518 | 49 | 45 | 7.0 | 13.0 | 0.00 | 0.00 | 0.00 | 78 | 1022.3 |
| 20260510085516 | 48 | 45 | 9.0 | 14.0 | 0.00 | 0.00 | 0.00 | 77 | 1022.1 |
| 20260510084516 | 49 | 45 | 7.0 | 16.0 | 0.00 | 0.00 | 0.00 | 77 | 1022.2 |
| 20260510083518 | 49 | 68 | 8.0 | 15.0 | 0.00 | 0.00 | 0.00 | 75 | 1022.2 |
| 20260510082517 | 49 | 45 | 9.0 | 18.0 | 0.00 | 0.00 | 0.00 | 76 | 1022.0 |
| 20260510081517 | 49 | 45 | 6.0 | 14.0 | 0.00 | 0.00 | 0.00 | 78 | 1022.0 |
| 20260510080516 | 49 | 45 | 9.0 | 16.0 | 0.00 | 0.00 | 0.00 | 77 | 1021.9 |
| 20260510075516 | 48 | 45 | 8.0 | 16.0 | 0.00 | 0.00 | 0.00 | 79 | 1021.9 |
| 20260510074518 | 48 | 45 | 8.0 | 15.0 | 0.00 | 0.00 | 0.00 | 79 | 1021.9 |
| 20260510073518 | 47 | 45 | 10.0 | 17.0 | 0.00 | 0.00 | 0.00 | 80 | 1022.0 |
| 20260510072518 | 47 | 45 | 11.0 | 19.0 | 0.00 | 0.00 | 0.00 | 81 | 1022.1 |
| 20260510071537 | 47 | 45 | 9.0 | 15.0 | 0.00 | 0.00 | 0.00 | 82 | 1022.0 |
| 20260510070518 | 46 | 45 | 9.0 | 17.0 | 0.00 | 0.00 | 0.00 | 83 | 1022.1 |
| 20260510065516 | 46 | 45 | 8.0 | 17.0 | 0.00 | 0.00 | 0.00 | 83 | 1022.0 |
| 20260510064516 | 46 | 45 | 8.0 | 16.0 | 0.00 | 0.00 | 0.00 | 84 | 1022.0 |
| 20260510063538 | 46 | 45 | 8.0 | 15.0 | 0.00 | 0.00 | 0.00 | 85 | 1021.9 |
| 20260510062518 | 46 | 45 | 8.0 | 14.0 | 0.00 | 0.00 | 0.00 | 85 | 1021.9 |
| 20260510061516 | 46 | 45 | 9.0 | 17.0 | 0.00 | 0.00 | 0.00 | 86 | 1021.8 |
| 20260510060516 | 46 | 45 | 8.0 | 16.0 | 0.00 | 0.00 | 0.00 | 86 | 1021.8 |
| 20260510055516 | 46 | 45 | 10.0 | 17.0 | 0.00 | 0.00 | 0.00 | 86 | 1021.8 |
| 20260510054536 | 46 | 45 | 7.0 | 13.0 | 0.00 | 0.00 | 0.00 | 87 | 1021.9 |
| 20260510053518 | 46 | 45 | 6.0 | 11.0 | 0.00 | 0.00 | 0.00 | 87 | 1022.0 |
| 20260510052518 | 46 | 45 | 8.0 | 14.0 | 0.00 | 0.00 | 0.00 | 88 | 1022.0 |
| 20260510051516 | 46 | 45 | 9.0 | 14.0 | 0.00 | 0.00 | 0.00 | 88 | 1022.0 |
| 20260510050516 | 46 | 45 | 6.0 | 11.0 | 0.00 | 0.00 | 0.00 | 89 | 1022.1 |
| 20260510045539 | 46 | 45 | 7.0 | 13.0 | 0.00 | 0.00 | 0.00 | 89 | 1022.0 |
| 20260510044518 | 46 | 45 | 9.0 | 15.0 | 0.00 | 0.00 | 0.00 | 89 | 1021.9 |
| 20260510043516 | 46 | 45 | 7.0 | 14.0 | 0.00 | 0.00 | 0.00 | 89 | 1021.8 |
| 20260510042516 | 46 | 45 | 7.0 | 13.0 | 0.00 | 0.00 | 0.00 | 89 | 1021.8 |
| 20260510041516 | 46 | 45 | 7.0 | 13.0 | 0.00 | 0.00 | 0.00 | 89 | 1021.8 |
| 20260510040517 | 46 | 45 | 9.0 | 15.0 | 0.00 | 0.00 | 0.00 | 89 | 1022.0 |
| 20260510035517 | 46 | 45 | 9.0 | 15.0 | 0.00 | 0.00 | 0.00 | 90 | 1021.9 |
| 20260510034517 | 46 | 45 | 9.0 | 15.0 | 0.00 | 0.00 | 0.00 | 90 | 1022.0 |
| 20260510033516 | 46 | 45 | 8.0 | 15.0 | 0.00 | 0.00 | 0.00 | 90 | 1021.9 |
| 20260510032639 | 47 | 45 | 9.0 | 13.0 | 0.00 | 0.00 | 0.00 | 91 | 1022.0 |
| 20260510031519 | 47 | 45 | 9.0 | 16.0 | 0.00 | 0.00 | 0.00 | 91 | 1022.1 |
| 20260510030516 | 47 | 45 | 8.0 | 14.0 | 0.00 | 0.00 | 0.00 | 91 | 1022.3 |
| 20260510025516 | 47 | 45 | 9.0 | 14.0 | 0.00 | 0.00 | 0.00 | 91 | 1022.4 |
| 20260510024516 | 47 | 45 | 6.0 | 12.0 | 0.00 | 0.00 | 0.00 | 92 | 1022.5 |
| 20260510023537 | 47 | 45 | 8.0 | 15.0 | 0.00 | 0.00 | 0.00 | 92 | 1022.6 |
| 20260510022516 | 47 | 45 | 9.0 | 15.0 | 0.00 | 0.00 | 0.00 | 92 | 1022.6 |
| 20260510021515 | 47 | 45 | 7.0 | 14.0 | 0.00 | 0.00 | 0.00 | 93 | 1022.6 |
| 20260510020515 | 47 | 45 | 9.0 | 15.0 | 0.00 | 0.00 | 0.00 | 92 | 1022.5 |
| 20260510015517 | 47 | 45 | 7.0 | 11.0 | 0.00 | 0.00 | 0.00 | 92 | 1022.7 |
| 20260510014517 | 47 | 45 | 8.0 | 15.0 | 0.00 | 0.00 | 0.00 | 92 | 1022.7 |
| 20260510013537 | 47 | 45 | 8.0 | 14.0 | 0.00 | 0.00 | 0.00 | 92 | 1022.6 |
| 20260510012517 | 47 | 45 | 7.0 | 13.0 | 0.00 | 0.00 | 0.00 | 92 | 1022.5 |
| 20260510011517 | 47 | 45 | 8.0 | 15.0 | 0.00 | 0.00 | 0.00 | 92 | 1022.5 |
| 20260510010517 | 47 | 45 | 8.0 | 13.0 | 0.00 | 0.00 | 0.00 | 92 | 1022.4 |
| 20260510005516 | 47 | 45 | 7.0 | 14.0 | 0.00 | 0.00 | 0.00 | 92 | 1022.3 |
| 20260510004537 | 48 | 45 | 8.0 | 15.0 | 0.00 | 0.00 | 0.00 | 92 | 1022.3 |
| 20260510003516 | 48 | 45 | 8.0 | 17.0 | 0.00 | 0.00 | 0.00 | 91 | 1022.4 |
| 20260510002519 | 48 | 45 | 8.0 | 13.0 | 0.00 | 0.00 | 0.00 | 91 | 1022.5 |
| 20260510001537 | 49 | 45 | 9.0 | 14.0 | 0.00 | 0.00 | 0.00 | 89 | 1022.7 |
| 20260510000515 | 49 | 45 | 9.0 | 16.0 | 0.00 | 0.00 | 0.00 | 88 | 1022.7 |
| 20260509235515 | 49 | 45 | 9.0 | 15.0 | 0.00 | 0.00 | 0.00 | 88 | 1022.8 |
| 20260509234515 | 49 | 45 | 11.0 | 20.0 | 0.00 | 0.00 | 0.00 | 88 | 1022.8 |
| 20260509233515 | 49 | 45 | 7.0 | 13.0 | 0.00 | 0.00 | 0.00 | 88 | 1022.7 |
| 20260509232515 | 50 | 45 | 8.0 | 14.0 | 0.00 | 0.00 | 0.00 | 88 | 1022.7 |
| 20260509231537 | 49 | 45 | 7.0 | 11.0 | 0.00 | 0.00 | 0.00 | 88 | 1022.6 |
| 20260509230515 | 49 | 45 | 7.0 | 14.0 | 0.00 | 0.00 | 0.00 | 89 | 1022.5 |
| 20260509225517 | 49 | 45 | 6.0 | 14.0 | 0.00 | 0.00 | 0.00 | 89 | 1022.4 |
| 20260509224517 | 49 | 45 | 7.0 | 12.0 | 0.00 | 0.00 | 0.00 | 89 | 1022.3 |
| 20260509223516 | 49 | 45 | 8.0 | 16.0 | 0.00 | 0.00 | 0.00 | 89 | 1022.3 |